Time;durP1;ratioP1;P1;durP2;ratioP2;P2;SDS_P1;SDS_P2;PMS_P1;PMS_P2;Temp;Humidity;BMP_temperature;BMP_pressure;BME280_temperature;BME280_humidity;BME280_pressure;Samples;Min_cycle;Max_cycle;Signal;HPM_P1;HPM_P2
2021/04/17 00:00:28;;;;;;;4.13;1.67;;;9.20;50.80;;;;;;4990918;28;20420;-74
2021/04/17 00:02:54;;;;;;;3.42;1.30;;;9.20;50.90;;;;;;4990998;28;20460;-74
2021/04/17 00:05:19;;;;;;;7.28;1.50;;;9.20;51.00;;;;;;4990913;28;20041;-75
2021/04/17 00:07:45;;;;;;;11.77;1.85;;;9.20;50.90;;;;;;4992434;28;20022;-75
2021/04/17 00:10:12;;;;;;;4.30;2.38;;;9.20;51.00;;;;;;4989465;28;20041;-74
2021/04/17 00:12:38;;;;;;;6.75;2.40;;;9.20;51.00;;;;;;4990601;28;20046;-75
2021/04/17 00:15:05;;;;;;;7.18;2.60;;;9.20;51.20;;;;;;4990488;28;20468;-76
2021/04/17 00:17:31;;;;;;;12.55;2.42;;;9.20;51.40;;;;;;4990520;28;20353;-75
2021/04/17 00:19:57;;;;;;;7.80;2.78;;;9.10;51.40;;;;;;4992384;28;20048;-75
2021/04/17 00:22:23;;;;;;;7.70;2.53;;;9.10;51.40;;;;;;4990581;28;20065;-76
2021/04/17 00:24:48;;;;;;;8.75;2.72;;;9.10;51.50;;;;;;5005723;28;20032;-75
2021/04/17 00:27:14;;;;;;;11.45;2.78;;;9.00;51.50;;;;;;4990279;28;20113;-76
2021/04/17 00:29:40;;;;;;;10.10;2.50;;;9.00;51.60;;;;;;4990122;28;20034;-76
2021/04/17 00:32:08;;;;;;;5.70;2.28;;;8.90;51.60;;;;;;4990316;28;20456;-75
2021/04/17 00:34:34;;;;;;;11.02;2.15;;;8.90;51.60;;;;;;4991898;28;20037;-76
2021/04/17 00:37:00;;;;;;;5.88;2.38;;;8.90;51.60;;;;;;4990324;28;20058;-77
2021/04/17 00:39:26;;;;;;;9.55;2.70;;;8.80;51.80;;;;;;4990252;28;20081;-76
2021/04/17 00:41:51;;;;;;;7.78;3.03;;;8.80;51.90;;;;;;4989904;28;20063;-76
2021/04/17 00:44:17;;;;;;;9.13;2.80;;;8.70;51.90;;;;;;4990077;28;20034;-76
2021/04/17 00:46:43;;;;;;;10.30;3.42;;;8.70;52.10;;;;;;5006950;28;20026;-75
2021/04/17 00:49:09;;;;;;;6.25;2.75;;;8.70;52.20;;;;;;5005511;28;20038;-76
2021/04/17 00:51:36;;;;;;;7.38;2.42;;;8.70;52.10;;;;;;4989943;28;20050;-75
2021/04/17 00:54:03;;;;;;;8.43;2.50;;;8.70;52.10;;;;;;4989996;28;20125;-75
2021/04/17 00:56:29;;;;;;;5.38;1.98;;;8.50;52.40;;;;;;4990294;28;20034;-76
2021/04/17 00:58:56;;;;;;;7.63;2.83;;;8.50;52.30;;;;;;4991353;28;20037;-75
2021/04/17 01:01:22;;;;;;;6.57;2.10;;;8.40;52.50;;;;;;4989830;28;20132;-75
2021/04/17 01:03:54;;;;;;;5.60;1.83;;;8.30;52.60;;;;;;4990219;28;20639;-75
2021/04/17 01:06:31;;;;;;;11.13;2.78;;;8.40;52.80;;;;;;4989841;28;20034;-75
2021/04/17 01:09:05;;;;;;;4.03;2.13;;;8.30;52.70;;;;;;4993280;28;20073;-75
2021/04/17 01:11:44;;;;;;;8.18;2.28;;;8.20;53.00;;;;;;4993825;28;20035;-76
2021/04/17 01:14:11;;;;;;;8.00;2.22;;;8.20;53.00;;;;;;4993819;28;20069;-75
2021/04/17 01:16:37;;;;;;;4.10;2.10;;;8.20;53.10;;;;;;4995413;28;20487;-75
2021/04/17 01:19:09;;;;;;;5.60;1.77;;;8.20;53.00;;;;;;4993843;28;20041;-75
2021/04/17 01:21:37;;;;;;;6.97;2.00;;;8.30;53.10;;;;;;4992430;28;20121;-75
2021/04/17 01:24:07;;;;;;;8.95;2.47;;;8.30;53.10;;;;;;4993519;28;20054;-75
2021/04/17 01:26:33;;;;;;;7.47;2.03;;;8.30;53.00;;;;;;4992727;28;20022;-75
2021/04/17 01:28:59;;;;;;;8.05;2.03;;;8.20;52.90;;;;;;4995123;28;20393;-75
2021/04/17 01:31:31;;;;;;;5.38;1.70;;;8.20;53.00;;;;;;4993467;28;20085;-75
2021/04/17 01:33:58;;;;;;;5.63;2.08;;;8.20;53.10;;;;;;4993466;28;20050;-75
2021/04/17 01:36:26;;;;;;;7.80;2.33;;;8.20;53.10;;;;;;5006363;28;20041;-75
2021/04/17 01:39:04;;;;;;;4.85;2.05;;;8.20;53.00;;;;;;5012702;28;20053;-74
2021/04/17 01:41:34;;;;;;;6.30;2.05;;;8.20;53.10;;;;;;5012716;28;20057;-74
2021/04/17 01:44:04;;;;;;;6.63;2.17;;;8.20;53.10;;;;;;5014430;28;20029;-77
2021/04/17 01:46:33;;;;;;;7.72;2.10;;;8.20;53.10;;;;;;5012221;28;20037;-74
2021/04/17 01:49:02;;;;;;;6.93;1.77;;;8.20;53.00;;;;;;5012692;28;20053;-74
2021/04/17 01:51:30;;;;;;;9.43;2.20;;;8.30;53.00;;;;;;5011786;28;20030;-75
2021/04/17 01:53:59;;;;;;;7.07;1.90;;;8.30;53.00;;;;;;5011707;28;20030;-75
2021/04/17 01:56:25;;;;;;;6.03;2.03;;;8.20;53.00;;;;;;5011509;28;20045;-75
2021/04/17 01:58:52;;;;;;;6.28;2.08;;;8.20;53.20;;;;;;5014189;28;20029;-74
2021/04/17 02:01:19;;;;;;;6.50;2.20;;;8.20;53.20;;;;;;5012639;28;20503;-75
2021/04/17 02:03:45;;;;;;;7.38;2.10;;;8.20;53.50;;;;;;5012735;28;20046;-76
2021/04/17 02:06:11;;;;;;;4.97;2.10;;;8.20;53.50;;;;;;5012815;28;20044;-76
2021/04/17 02:08:37;;;;;;;6.43;2.00;;;8.10;53.50;;;;;;5011823;28;20026;-77
2021/04/17 02:11:04;;;;;;;7.35;2.05;;;8.10;54.00;;;;;;5014188;28;20133;-76
2021/04/17 02:13:32;;;;;;;9.80;3.47;;;8.10;53.60;;;;;;5011884;28;20245;-75
2021/04/17 02:16:05;;;;;;;7.50;2.42;;;8.10;53.60;;;;;;5011603;28;20038;-75
2021/04/17 02:18:47;;;;;;;7.70;2.28;;;8.20;53.50;;;;;;5012186;28;20038;-76
2021/04/17 02:21:16;;;;;;;8.55;2.85;;;8.20;53.80;;;;;;5012194;28;20042;-76
2021/04/17 02:23:43;;;;;;;5.18;1.98;;;8.10;53.80;;;;;;5011093;28;20065;-76
2021/04/17 02:26:08;;;;;;;9.13;2.38;;;8.10;53.80;;;;;;5011398;28;20029;-75
2021/04/17 02:28:34;;;;;;;4.75;1.95;;;8.00;54.00;;;;;;5013624;28;20020;-76
2021/04/17 02:31:03;;;;;;;9.68;2.78;;;8.00;54.00;;;;;;5012408;28;20042;-75
2021/04/17 02:33:29;;;;;;;6.10;1.77;;;7.90;54.30;;;;;;5011154;28;20044;-76
2021/04/17 02:35:55;;;;;;;6.28;2.25;;;7.90;54.50;;;;;;5010776;28;20072;-76
2021/04/17 02:38:21;;;;;;;4.55;2.47;;;7.80;54.40;;;;;;5011014;28;20053;-75
2021/04/17 02:40:47;;;;;;;6.18;2.30;;;7.70;54.60;;;;;;5013497;28;20022;-76
2021/04/17 02:43:12;;;;;;;5.57;2.28;;;7.70;54.80;;;;;;5010784;28;20034;-75
2021/04/17 02:45:38;;;;;;;7.43;2.00;;;7.80;54.90;;;;;;5011955;28;20034;-75
2021/04/17 02:48:04;;;;;;;8.43;2.17;;;7.80;55.00;;;;;;5011983;28;20111;-75
2021/04/17 02:50:30;;;;;;;10.18;2.60;;;7.70;55.00;;;;;;5011400;28;20026;-75
2021/04/17 02:52:55;;;;;;;4.90;2.10;;;7.50;55.30;;;;;;5013392;28;20029;-74
2021/04/17 02:55:21;;;;;;;3.55;1.83;;;7.50;55.70;;;;;;5011567;28;20041;-76
2021/04/17 02:57:47;;;;;;;5.75;2.17;;;7.60;56.10;;;;;;5011571;28;20517;-76
2021/04/17 03:00:19;;;;;;;5.53;2.30;;;7.70;55.40;;;;;;5011485;28;20025;-75
2021/04/17 03:02:44;;;;;;;10.18;2.88;;;7.80;55.30;;;;;;5011362;28;20044;-76
2021/04/17 03:05:12;;;;;;;8.50;2.95;;;7.80;55.40;;;;;;5011402;28;20109;-75
2021/04/17 03:07:37;;;;;;;9.33;2.63;;;7.50;55.70;;;;;;5013076;28;20168;-76
2021/04/17 03:10:06;;;;;;;4.75;2.00;;;7.60;55.80;;;;;;5011263;28;20554;-74
2021/04/17 03:12:31;;;;;;;11.05;2.58;;;7.60;55.90;;;;;;5011339;28;20355;-76
2021/04/17 03:14:57;;;;;;;10.98;2.97;;;7.80;55.60;;;;;;5011029;28;20467;-75
2021/04/17 03:17:23;;;;;;;4.05;2.00;;;8.10;55.50;;;;;;5011181;28;20472;-75
2021/04/17 03:19:48;;;;;;;6.18;2.30;;;7.70;55.60;;;;;;5012660;28;20341;-75
2021/04/17 03:22:14;;;;;;;7.95;2.38;;;7.60;55.70;;;;;;5009743;28;20042;-74
2021/04/17 03:24:40;;;;;;;6.38;2.35;;;7.70;55.80;;;;;;5011097;28;20120;-75
2021/04/17 03:27:06;;;;;;;7.63;2.58;;;7.70;55.80;;;;;;5011127;28;20096;-74
2021/04/17 03:29:32;;;;;;;7.13;2.63;;;7.70;56.00;;;;;;5010801;28;20026;-74
2021/04/17 03:31:58;;;;;;;7.07;2.25;;;7.70;55.90;;;;;;5012001;28;20018;-75
2021/04/17 03:34:25;;;;;;;5.60;2.13;;;7.80;55.80;;;;;;5010889;28;20042;-74
2021/04/17 03:36:50;;;;;;;6.90;2.35;;;7.70;55.80;;;;;;5010322;28;20380;-75
2021/04/17 03:39:16;;;;;;;6.30;2.17;;;7.80;55.90;;;;;;5010954;28;20046;-75
2021/04/17 03:41:42;;;;;;;7.35;2.58;;;7.80;56.00;;;;;;5010612;28;20042;-76
2021/04/17 03:44:08;;;;;;;7.95;2.20;;;7.90;55.90;;;;;;5009526;28;20371;-75
2021/04/17 03:46:34;;;;;;;4.22;1.73;;;7.80;55.90;;;;;;5012197;28;20022;-76
2021/04/17 03:48:59;;;;;;;4.20;2.10;;;7.90;56.00;;;;;;5009146;28;20436;-77
2021/04/17 03:51:25;;;;;;;8.68;2.28;;;7.90;56.10;;;;;;5010882;28;20057;-75
2021/04/17 03:53:52;;;;;;;5.68;2.30;;;7.90;56.00;;;;;;5010411;28;20041;-74
2021/04/17 03:56:18;;;;;;;9.70;2.97;;;7.90;56.00;;;;;;5010341;28;20342;-75
2021/04/17 03:58:43;;;;;;;10.02;2.67;;;7.90;56.10;;;;;;5011810;28;20014;-74
2021/04/17 04:01:09;;;;;;;6.95;2.38;;;8.00;55.90;;;;;;5010121;28;20107;-75
2021/04/17 04:03:35;;;;;;;7.95;2.38;;;8.10;55.90;;;;;;5010174;28;20038;-74
2021/04/17 04:06:00;;;;;;;6.47;1.90;;;8.00;55.90;;;;;;5010498;28;20353;-74
2021/04/17 04:08:26;;;;;;;5.55;2.17;;;7.70;56.10;;;;;;5010372;28;20429;-74
2021/04/17 04:10:52;;;;;;;8.10;2.72;;;7.70;56.40;;;;;;5011955;28;20045;-75
2021/04/17 04:13:18;;;;;;;5.25;2.47;;;7.80;56.70;;;;;;5010239;28;20038;-75
2021/04/17 04:15:43;;;;;;;5.53;2.47;;;7.80;56.70;;;;;;5010063;28;20100;-76
2021/04/17 04:18:10;;;;;;;6.80;2.70;;;7.80;56.70;;;;;;5009761;28;20036;-76
2021/04/17 04:20:35;;;;;;;5.68;2.10;;;7.70;57.00;;;;;;5009203;28;20131;-74
2021/04/17 04:23:01;;;;;;;16.75;3.45;;;7.80;57.10;;;;;;5011533;28;20053;-75
2021/04/17 04:25:27;;;;;;;5.13;2.55;;;7.70;57.40;;;;;;5009147;28;20534;-74
2021/04/17 04:27:53;;;;;;;8.25;2.53;;;7.70;57.80;;;;;;5010059;28;20456;-75
2021/04/17 04:30:19;;;;;;;8.40;2.20;;;7.70;57.90;;;;;;5010150;28;20029;-73
2021/04/17 04:32:44;;;;;;;6.90;3.10;;;7.60;58.00;;;;;;5009654;28;20030;-75
2021/04/17 04:35:10;;;;;;;6.00;2.30;;;7.80;58.20;;;;;;5009835;28;20026;-75
2021/04/17 04:37:36;;;;;;;7.50;2.47;;;7.60;58.40;;;;;;5011261;28;20038;-74
2021/04/17 04:40:04;;;;;;;5.15;2.38;;;7.70;58.70;;;;;;5009602;28;20030;-75
2021/04/17 04:42:30;;;;;;;6.18;2.50;;;7.60;59.10;;;;;;5009038;28;20054;-74
2021/04/17 04:44:56;;;;;;;6.20;2.60;;;7.50;59.20;;;;;;5009918;28;20033;-76
2021/04/17 04:47:22;;;;;;;5.43;2.50;;;7.40;59.80;;;;;;5008453;28;20062;-77
2021/04/17 04:49:48;;;;;;;7.38;2.67;;;7.40;59.90;;;;;;5011496;28;20022;-76
2021/04/17 04:52:13;;;;;;;8.63;3.40;;;7.50;59.90;;;;;;5009459;28;20029;-76
2021/04/17 04:54:39;;;;;;;8.18;2.95;;;7.40;60.10;;;;;;5009874;28;20033;-75
2021/04/17 04:57:05;;;;;;;10.80;3.08;;;7.40;60.60;;;;;;5009439;28;20034;-77
2021/04/17 04:59:30;;;;;;;9.07;2.95;;;7.40;60.90;;;;;;5009363;28;20072;-75
2021/04/17 05:01:56;;;;;;;6.88;2.65;;;7.50;61.00;;;;;;5010904;28;20033;-74
2021/04/17 05:04:22;;;;;;;11.55;3.05;;;7.40;61.30;;;;;;5009369;28;20045;-76
2021/04/17 05:06:47;;;;;;;13.15;3.15;;;7.60;61.50;;;;;;5009324;28;20030;-76
2021/04/17 05:09:13;;;;;;;9.13;3.03;;;7.60;61.60;;;;;;5009400;28;20492;-75
2021/04/17 05:11:38;;;;;;;14.60;2.95;;;7.70;61.60;;;;;;5009131;28;20018;-75
2021/04/17 05:14:04;;;;;;;10.75;3.50;;;7.70;61.90;;;;;;5010671;28;20079;-75
2021/04/17 05:16:30;;;;;;;8.07;2.70;;;7.70;61.90;;;;;;5009831;28;20060;-74
2021/04/17 05:18:55;;;;;;;8.52;3.15;;;7.70;62.10;;;;;;5009373;28;20368;-75
2021/04/17 05:21:21;;;;;;;6.75;3.05;;;7.80;62.30;;;;;;5008978;28;20486;-76
2021/04/17 05:23:47;;;;;;;10.85;3.35;;;7.80;62.60;;;;;;5009477;28;20030;-75
2021/04/17 05:26:12;;;;;;;11.35;3.53;;;7.90;62.70;;;;;;5009341;28;20022;-74
2021/04/17 05:28:38;;;;;;;8.23;3.58;;;7.90;62.90;;;;;;5010810;28;20101;-74
2021/04/17 05:31:03;;;;;;;13.10;3.60;;;7.90;63.30;;;;;;5009182;28;20060;-76
2021/04/17 05:33:29;;;;;;;7.57;3.70;;;8.00;63.30;;;;;;5009311;28;20129;-74
2021/04/17 05:35:55;;;;;;;7.10;3.30;;;8.00;63.50;;;;;;5009191;28;20435;-75
2021/04/17 05:38:21;;;;;;;11.15;3.72;;;8.00;63.80;;;;;;5008924;28;20050;-74
2021/04/17 05:40:47;;;;;;;15.65;4.13;;;7.90;64.50;;;;;;5010572;28;20030;-75
2021/04/17 05:43:13;;;;;;;6.75;3.38;;;8.00;64.60;;;;;;5009117;28;20044;-74
2021/04/17 05:45:38;;;;;;;10.18;3.28;;;8.20;65.10;;;;;;5009448;28;20109;-74
2021/04/17 05:48:05;;;;;;;7.32;3.60;;;8.00;65.00;;;;;;5009164;28;20114;-74
2021/04/17 05:50:30;;;;;;;8.98;4.32;;;7.90;65.90;;;;;;5009093;28;20108;-76
2021/04/17 05:52:56;;;;;;;12.07;4.30;;;7.90;66.40;;;;;;5010521;28;20121;-74
2021/04/17 05:55:22;;;;;;;8.32;4.05;;;7.90;67.00;;;;;;5012892;28;20045;-74
2021/04/17 05:57:47;;;;;;;8.98;3.58;;;8.00;66.70;;;;;;5011234;28;20507;-75
2021/04/17 06:00:13;;;;;;;9.63;3.95;;;7.90;67.70;;;;;;5011296;28;20117;-74
2021/04/17 06:02:39;;;;;;;6.82;3.45;;;7.90;68.40;;;;;;5012655;28;20076;-74
2021/04/17 06:05:06;;;;;;;7.88;3.75;;;7.90;68.30;;;;;;5012348;28;20058;-71
2021/04/17 06:07:31;;;;;;;8.85;4.05;;;7.90;68.50;;;;;;5014311;28;20401;-75
2021/04/17 06:09:57;;;;;;;12.95;4.45;;;7.80;69.50;;;;;;5011427;28;20062;-74
2021/04/17 06:12:23;;;;;;;8.63;3.92;;;7.90;69.40;;;;;;5012041;28;20034;-76
2021/04/17 06:14:48;;;;;;;11.35;4.00;;;7.90;69.70;;;;;;5010417;28;20052;-76
2021/04/17 06:17:14;;;;;;;14.70;4.30;;;8.00;70.20;;;;;;5011170;28;20064;-75
2021/04/17 06:19:39;;;;;;;16.13;3.67;;;8.10;70.40;;;;;;5013725;28;20149;-75
2021/04/17 06:22:05;;;;;;;10.23;4.00;;;8.00;70.70;;;;;;5012304;28;20045;-75
2021/04/17 06:24:31;;;;;;;11.85;3.92;;;8.10;70.90;;;;;;5012556;28;20037;-75
2021/04/17 06:26:56;;;;;;;12.75;3.92;;;8.10;71.50;;;;;;5011376;28;20312;-75
2021/04/17 06:29:22;;;;;;;15.02;4.38;;;8.30;71.80;;;;;;5010401;28;20033;-74
2021/04/17 06:31:49;;;;;;;16.40;4.00;;;8.30;71.40;;;;;;5013625;28;20105;-74
2021/04/17 06:34:14;;;;;;;12.15;4.72;;;8.40;71.10;;;;;;5011137;28;20556;-75
2021/04/17 06:36:40;;;;;;;8.40;4.35;;;8.30;71.30;;;;;;5011910;28;20058;-74
2021/04/17 06:39:07;;;;;;;11.82;5.10;;;8.50;71.50;;;;;;5011992;28;20537;-73
2021/04/17 06:41:34;;;;;;;17.85;5.03;;;8.60;72.00;;;;;;5012102;28;20574;-74
2021/04/17 06:44:05;;;;;;;16.03;4.47;;;8.70;71.60;;;;;;5013418;28;20073;-75
2021/04/17 06:46:32;;;;;;;9.35;4.82;;;8.80;71.40;;;;;;5011957;28;20278;-74
2021/04/17 06:49:02;;;;;;;16.02;5.15;;;8.60;72.40;;;;;;5011759;28;20484;-74
2021/04/17 06:51:30;;;;;;;11.85;4.55;;;8.80;72.00;;;;;;5011902;28;20432;-74
2021/04/17 06:53:56;;;;;;;11.02;4.18;;;9.10;71.40;;;;;;5010688;28;20030;-74
2021/04/17 06:56:24;;;;;;;10.15;4.25;;;8.90;70.90;;;;;;5011739;28;20604;-74
2021/04/17 06:58:50;;;;;;;10.10;4.40;;;9.00;70.90;;;;;;5013178;28;20048;-77
2021/04/17 07:01:16;;;;;;;14.50;4.10;;;9.00;70.20;;;;;;5011162;28;20417;-75
2021/04/17 07:03:41;;;;;;;8.68;4.05;;;8.90;70.40;;;;;;5011358;28;20030;-75
2021/04/17 07:06:07;;;;;;;9.25;3.92;;;9.30;69.90;;;;;;5011055;28;20448;-77
2021/04/17 07:08:33;;;;;;;11.05;4.70;;;9.40;69.70;;;;;;5011000;28;20365;-77
2021/04/17 07:10:59;;;;;;;12.65;5.32;;;9.50;69.30;;;;;;5012863;28;20037;-77
2021/04/17 07:13:28;;;;;;;11.85;4.70;;;9.60;68.60;;;;;;5011334;28;20045;-77
2021/04/17 07:16:06;;;;;;;10.80;4.15;;;9.60;68.20;;;;;;5010795;28;20040;-77
2021/04/17 07:18:32;;;;;;;9.43;3.58;;;9.30;68.20;;;;;;5010374;28;20049;-78
2021/04/17 07:21:19;;;;;;;9.88;4.07;;;9.20;69.10;;;;;;5011016;28;20100;-77
2021/04/17 07:23:47;;;;;;;13.23;4.10;;;9.30;69.20;;;;;;5010783;28;20058;-78
2021/04/17 07:26:15;;;;;;;8.77;3.97;;;9.50;69.30;;;;;;5010743;28;20061;-77
2021/04/17 07:28:54;;;;;;;10.43;4.22;;;9.60;68.80;;;;;;5012947;28;20018;-78
2021/04/17 07:31:21;;;;;;;8.43;4.28;;;9.70;68.70;;;;;;5010854;28;20045;-79
2021/04/17 07:33:47;;;;;;;9.63;4.30;;;9.70;68.10;;;;;;5010757;28;20041;-78
2021/04/17 07:36:13;;;;;;;8.07;4.03;;;9.80;67.90;;;;;;5009541;28;20038;-75
2021/04/17 07:38:39;;;;;;;12.95;4.25;;;9.50;67.70;;;;;;5010713;28;20427;-75
2021/04/17 07:41:19;;;;;;;13.48;4.43;;;9.50;68.30;;;;;;5012131;28;20034;-75
2021/04/17 07:43:54;;;;;;;10.15;3.67;;;9.80;68.10;;;;;;5010953;28;20112;-78
2021/04/17 07:46:25;;;;;;;11.27;3.70;;;9.90;67.40;;;;;;5009843;28;20057;-79
2021/04/17 07:49:08;;;;;;;14.63;3.70;;;10.00;65.90;;;;;;5010614;28;20061;-79
2021/04/17 07:52:01;;;;;;;10.45;3.42;;;10.30;65.80;;;;;;5009294;28;20034;-76
2021/04/17 07:54:28;;;;;;;11.52;3.80;;;10.30;64.80;;;;;;5010232;28;20077;-75
2021/04/17 07:56:54;;;;;;;18.25;4.75;;;10.30;64.90;;;;;;5010427;28;20038;-76
2021/04/17 07:59:23;;;;;;;6.55;3.63;;;10.30;64.90;;;;;;5010307;28;20491;-74
2021/04/17 08:01:50;;;;;;;10.43;4.38;;;10.20;64.70;;;;;;5011936;28;20104;-78
2021/04/17 08:04:26;;;;;;;10.07;3.97;;;10.40;64.90;;;;;;5010181;28;20030;-73
2021/04/17 08:06:53;;;;;;;18.00;4.22;;;10.40;64.70;;;;;;5010128;28;20096;-70
2021/04/17 08:09:22;;;;;;;9.55;3.50;;;10.50;64.40;;;;;;5009948;28;20133;-70
2021/04/17 08:11:52;;;;;;;10.85;4.68;;;10.60;63.90;;;;;;5010395;28;20044;-76
2021/04/17 08:14:20;;;;;;;6.85;3.63;;;10.70;63.50;;;;;;5010200;28;20100;-74
2021/04/17 08:16:46;;;;;;;9.85;4.07;;;10.80;63.50;;;;;;5011039;28;20029;-77
2021/04/17 08:19:12;;;;;;;11.32;3.78;;;10.80;63.10;;;;;;5008649;28;20041;-80
2021/04/17 08:21:38;;;;;;;9.88;4.35;;;10.80;62.90;;;;;;5010738;28;20053;-81
2021/04/17 08:24:05;;;;;;;5.90;3.30;;;10.40;63.30;;;;;;5009995;28;20539;-73
2021/04/17 08:26:33;;;;;;;9.48;3.97;;;10.10;63.70;;;;;;5009655;28;20033;-74
2021/04/17 08:28:59;;;;;;;12.38;4.15;;;10.10;64.60;;;;;;5011587;28;20183;-74
2021/04/17 08:31:31;;;;;;;12.80;4.78;;;10.40;64.50;;;;;;5009735;28;20121;-72
2021/04/17 08:34:13;;;;;;;8.18;3.65;;;10.30;64.30;;;;;;5009912;28;20046;-79
2021/04/17 08:36:51;;;;;;;10.60;4.10;;;10.50;63.80;;;;;;5009818;28;20026;-78
2021/04/17 08:39:35;;;;;;;10.23;4.18;;;10.60;63.70;;;;;;5009814;28;20050;-76
2021/04/17 08:42:06;;;;;;;20.27;4.20;;;10.50;64.10;;;;;;5009782;28;20058;-76
2021/04/17 08:44:40;;;;;;;11.25;4.05;;;10.50;64.40;;;;;;5009992;28;20391;-76
2021/04/17 08:47:07;;;;;;;22.83;11.32;;;10.40;64.40;;;;;;5011361;28;20265;-77
2021/04/17 08:49:36;;;;;;;10.38;4.13;;;10.60;64.50;;;;;;5010125;28;20046;-80
2021/04/17 08:52:20;;;;;;;;;;;10.50;64.80;;;;;;5009187;28;20030;-79
2021/04/17 08:54:53;;;;;;;9.52;3.90;;;10.50;64.90;;;;;;5009220;28;19921;-80
2021/04/17 08:57:20;;;;;;;10.77;3.55;;;10.60;64.90;;;;;;5009556;28;20052;-80
2021/04/17 08:59:59;;;;;;;7.88;4.03;;;10.40;65.00;;;;;;5009267;28;20172;-80
2021/04/17 09:02:26;;;;;;;11.02;4.78;;;10.80;65.50;;;;;;5009251;28;20068;-78
2021/04/17 09:05:01;;;;;;;12.25;5.30;;;10.90;64.30;;;;;;5026379;28;20022;-76
2021/04/17 09:07:32;;;;;;;13.13;3.88;;;11.30;64.60;;;;;;5009813;28;20042;-75
2021/04/17 09:10:23;;;;;;;10.63;3.38;;;11.50;63.60;;;;;;5008397;28;20098;-77
2021/04/17 09:13:12;;;;;;;11.90;4.00;;;11.80;62.80;;;;;;5009082;28;20615;-75
2021/04/17 09:16:05;;;;;;;12.65;4.07;;;12.20;62.50;;;;;;5009505;28;20367;-76
2021/04/17 09:18:34;;;;;;;8.32;3.65;;;13.00;62.60;;;;;;5008360;28;20037;-77
2021/04/17 09:21:20;;;;;;;10.95;3.50;;;13.40;59.70;;;;;;5009319;28;20136;-75
2021/04/17 09:23:52;;;;;;;12.85;3.53;;;15.00;59.30;;;;;;5005166;28;20022;-78
2021/04/17 09:26:30;;;;;;;12.48;3.45;;;15.60;57.40;;;;;;5009207;28;20377;-76
2021/04/17 09:29:00;;;;;;;;;;;17.10;54.90;;;;;;5013099;28;20356;-75
2021/04/17 09:31:26;;;;;;;15.05;3.50;;;18.10;51.80;;;;;;5012624;28;19916;-74
2021/04/17 09:34:21;;;;;;;5.43;2.78;;;19.30;48.90;;;;;;5013003;28;20053;-76
2021/04/17 09:36:50;;;;;;;7.57;2.80;;;20.60;46.30;;;;;;5008300;28;20038;-79
2021/04/17 09:39:30;;;;;;;7.43;2.90;;;21.50;44.50;;;;;;5013130;28;20041;-81
2021/04/17 09:42:03;;;;;;;9.65;2.95;;;21.80;41.60;;;;;;5013007;28;20543;-82
2021/04/17 09:44:46;;;;;;;5.68;2.83;;;20.40;40.20;;;;;;5012817;28;20054;-74
2021/04/17 09:47:15;;;;;;;14.45;3.17;;;22.00;41.60;;;;;;5012670;28;20030;-76
2021/04/17 09:49:44;;;;;;;7.75;2.63;;;23.10;39.70;;;;;;5014318;28;20025;-81
2021/04/17 09:52:18;;;;;;;5.15;2.20;;;23.60;38.70;;;;;;5011548;28;20046;-82
2021/04/17 09:54:45;;;;;;;7.03;2.80;;;24.10;37.20;;;;;;5012518;28;20045;-80
2021/04/17 09:57:11;;;;;;;6.10;3.08;;;24.40;36.20;;;;;;5007536;28;20161;-81
2021/04/17 09:59:37;;;;;;;5.40;2.47;;;24.20;35.30;;;;;;4973879;28;20125;-80
2021/04/17 10:02:06;;;;;;;7.85;3.03;;;23.00;35.50;;;;;;4974360;28;20038;-78
2021/04/17 10:04:53;;;;;;;8.10;3.00;;;22.80;36.50;;;;;;4973461;28;20488;-76
2021/04/17 10:07:19;;;;;;;9.48;3.88;;;22.20;36.00;;;;;;4988439;28;20401;-76
2021/04/17 10:10:08;;;;;;;7.97;2.72;;;23.30;35.70;;;;;;4973566;28;20043;-79
2021/04/17 10:12:50;;;;;;;7.32;2.80;;;22.70;36.10;;;;;;4973658;28;20038;-77
2021/04/17 10:15:23;;;;;;;7.38;2.40;;;21.40;35.60;;;;;;4973238;28;20095;-78
2021/04/17 10:17:51;;;;;;;7.53;2.88;;;22.20;36.40;;;;;;4988163;28;20039;-78
2021/04/17 10:20:17;;;;;;;8.05;3.95;;;22.20;36.00;;;;;;4988093;28;20034;-80
2021/04/17 10:22:58;;;;;;;8.52;2.78;;;21.80;36.30;;;;;;4974726;28;20097;-77
2021/04/17 10:25:40;;;;;;;6.55;2.72;;;22.10;35.80;;;;;;4973242;28;20131;-76
2021/04/17 10:28:26;;;;;;;6.10;2.72;;;22.00;35.70;;;;;;4972143;28;20039;-76
2021/04/17 10:30:55;;;;;;;7.80;2.72;;;21.50;36.20;;;;;;4972251;28;20039;-73
2021/04/17 10:33:26;;;;;;;10.52;2.50;;;20.30;36.60;;;;;;4988300;28;20660;-79
2021/04/17 10:35:53;;;;;;;6.72;2.47;;;20.70;36.30;;;;;;4973059;28;20043;-73
2021/04/17 10:38:49;;;;;;;4.95;2.97;;;20.30;36.00;;;;;;4972880;28;20039;-73
2021/04/17 10:41:29;;;;;;;3.80;2.35;;;19.80;36.00;;;;;;4978656;28;20034;-74
2021/04/17 10:44:12;;;;;;;5.72;2.70;;;19.60;36.30;;;;;;4974293;28;20023;-75
2021/04/17 10:46:45;;;;;;;6.47;2.92;;;19.40;36.80;;;;;;4972756;28;20105;-75
2021/04/17 10:49:44;;;;;;;10.35;2.85;;;19.00;38.30;;;;;;4987758;28;20097;-75
2021/04/17 10:52:33;;;;;;;5.95;3.03;;;18.60;38.00;;;;;;4972771;28;20068;-73
2021/04/17 10:55:01;;;;;;;6.93;1.95;;;18.90;38.10;;;;;;4971672;28;20074;-73
2021/04/17 10:57:43;;;;;;;5.32;2.42;;;18.50;38.70;;;;;;4972664;28;20043;-74
2021/04/17 11:00:10;;;;;;;6.00;2.47;;;18.10;38.90;;;;;;4987584;28;20043;-74
2021/04/17 11:02:36;;;;;;;8.80;2.90;;;17.60;39.70;;;;;;4972483;28;20041;-73
2021/04/17 11:05:06;;;;;;;6.53;2.58;;;17.40;40.20;;;;;;4973552;28;20034;-73
2021/04/17 11:07:36;;;;;;;7.97;2.15;;;17.20;40.70;;;;;;4972843;28;20038;-72
2021/04/17 11:10:08;;;;;;;9.60;2.20;;;17.10;40.40;;;;;;4972457;28;20035;-74
2021/04/17 11:12:36;;;;;;;6.38;2.50;;;16.90;40.70;;;;;;4972320;28;20515;-73
2021/04/17 11:15:18;;;;;;;9.18;2.85;;;16.80;40.40;;;;;;4972235;28;20054;-74
2021/04/17 11:18:04;;;;;;;3.47;2.45;;;16.60;41.00;;;;;;4972159;28;20499;-73
2021/04/17 11:20:30;;;;;;;7.03;3.50;;;16.20;41.50;;;;;;4972220;28;20034;-72
2021/04/17 11:22:55;;;;;;;9.95;3.05;;;16.10;42.10;;;;;;4988904;28;20045;-75
2021/04/17 11:25:21;;;;;;;7.68;2.63;;;16.00;42.50;;;;;;4972256;28;20145;-73
2021/04/17 11:27:47;;;;;;;9.00;2.55;;;15.90;42.30;;;;;;4971791;28;20042;-73
2021/04/17 11:30:13;;;;;;;8.60;2.90;;;16.00;42.40;;;;;;4971986;28;20053;-74
2021/04/17 11:32:39;;;;;;;8.38;2.58;;;15.90;42.80;;;;;;4972223;28;20035;-74
2021/04/17 11:35:09;;;;;;;6.50;2.97;;;15.80;43.00;;;;;;4971615;28;20098;-72
2021/04/17 11:37:35;;;;;;;8.55;2.78;;;15.70;43.10;;;;;;4988363;28;20051;-74
2021/04/17 11:40:00;;;;;;;10.52;3.00;;;15.80;43.40;;;;;;4971563;28;20038;-74
2021/04/17 11:42:26;;;;;;;8.82;2.67;;;15.70;43.70;;;;;;4987065;28;20520;-74
2021/04/17 11:44:53;;;;;;;9.57;3.22;;;15.70;43.70;;;;;;4986756;28;20339;-74
2021/04/17 11:47:19;;;;;;;12.85;2.70;;;15.80;43.90;;;;;;4971323;28;20109;-75
2021/04/17 11:49:45;;;;;;;6.47;2.40;;;15.90;43.80;;;;;;4973197;28;20070;-74
2021/04/17 11:52:12;;;;;;;7.68;3.10;;;16.00;43.60;;;;;;4971743;28;20121;-74
2021/04/17 11:54:37;;;;;;;9.27;2.80;;;15.90;43.80;;;;;;4986331;28;20164;-75
2021/04/17 11:57:04;;;;;;;9.65;2.72;;;15.70;43.90;;;;;;4971711;28;20464;-73
2021/04/17 11:59:30;;;;;;;5.25;3.22;;;15.80;44.10;;;;;;4971363;28;20618;-74
2021/04/17 12:01:55;;;;;;;7.68;2.88;;;15.80;44.00;;;;;;4988326;28;20041;-74
2021/04/17 12:04:22;;;;;;;9.10;3.17;;;16.00;44.50;;;;;;4971862;28;20035;-74
2021/04/17 12:06:50;;;;;;;7.38;2.97;;;16.10;43.90;;;;;;4971484;28;20051;-74
2021/04/17 12:09:18;;;;;;;;;;;16.00;43.80;;;;;;4972093;28;20035;-75
2021/04/17 12:11:46;;;;;;;6.65;2.60;;;16.00;43.10;;;;;;4971454;28;19910;-74
2021/04/17 12:14:12;;;;;;;;;;;16.00;43.20;;;;;;4971551;28;20039;-75
2021/04/17 12:16:37;;;;;;;6.57;2.50;;;16.00;42.90;;;;;;4988036;28;19906;-75
2021/04/17 12:19:03;;;;;;;5.57;2.42;;;15.90;42.70;;;;;;4971181;28;20122;-75
2021/04/17 12:21:28;;;;;;;17.42;2.35;;;15.90;42.80;;;;;;4971108;28;20061;-74
2021/04/17 12:23:54;;;;;;;9.68;2.35;;;15.80;43.00;;;;;;4986198;28;20031;-73
2021/04/17 12:26:19;;;;;;;7.32;2.47;;;15.80;43.20;;;;;;4986065;28;20026;-74
2021/04/17 12:28:45;;;;;;;3.72;2.00;;;15.80;42.60;;;;;;4972116;28;20030;-74
2021/04/17 12:31:12;;;;;;;7.70;3.15;;;15.70;41.90;;;;;;4970589;28;20104;-74
2021/04/17 12:33:37;;;;;;;4.93;2.50;;;15.80;41.90;;;;;;4970972;28;20096;-74
2021/04/17 12:36:04;;;;;;;4.50;2.13;;;15.80;42.00;;;;;;4970882;28;20409;-73
2021/04/17 12:38:30;;;;;;;4.50;1.92;;;15.80;41.80;;;;;;4970622;28;20591;-74
2021/04/17 12:40:56;;;;;;;6.32;2.60;;;15.80;41.80;;;;;;4972133;28;20105;-75
2021/04/17 12:43:22;;;;;;;9.38;2.40;;;15.70;41.60;;;;;;4970824;28;20061;-74
2021/04/17 12:45:48;;;;;;;6.35;2.28;;;15.70;41.60;;;;;;4970820;28;20121;-74
2021/04/17 12:48:16;;;;;;;6.00;2.40;;;15.80;41.60;;;;;;4970667;28;20031;-75
2021/04/17 12:50:42;;;;;;;3.67;1.80;;;15.70;41.20;;;;;;4970891;28;20169;-74
2021/04/17 12:53:07;;;;;;;14.90;3.22;;;15.60;41.10;;;;;;4970448;28;20441;-74
2021/04/17 12:55:33;;;;;;;5.22;2.45;;;15.60;41.50;;;;;;4972148;28;20037;-74
2021/04/17 12:58:02;;;;;;;3.42;2.28;;;15.60;41.40;;;;;;4970447;28;20045;-74